createdAt,value
2023-04-24T00:01:08.844Z,14.21
2023-04-24T00:03:35.179Z,14.20
2023-04-24T00:06:01.500Z,14.19
2023-04-24T00:08:27.913Z,14.19
2023-04-24T00:10:54.353Z,14.17
2023-04-24T00:13:21.137Z,14.17
2023-04-24T00:15:47.491Z,14.13
2023-04-24T00:18:13.940Z,14.09
2023-04-24T00:20:40.389Z,14.06
2023-04-24T00:23:06.909Z,14.04
2023-04-24T00:25:33.317Z,14.04
2023-04-24T00:27:59.742Z,13.99
2023-04-24T00:30:26.160Z,13.95
2023-04-24T00:32:52.660Z,13.92
2023-04-24T00:35:19.032Z,13.89
2023-04-24T00:37:45.488Z,13.87
2023-04-24T00:40:11.946Z,13.87
2023-04-24T00:42:38.310Z,13.83
2023-04-24T00:45:04.766Z,13.86
2023-04-24T00:47:31.180Z,13.85
2023-04-24T00:49:57.562Z,13.83
2023-04-24T00:52:23.981Z,13.83
2023-04-24T00:54:50.446Z,13.82
2023-04-24T00:57:16.818Z,13.80
2023-04-24T00:59:43.609Z,13.78
2023-04-24T01:02:09.716Z,13.76
2023-04-24T01:04:36.227Z,13.74
2023-04-24T01:07:02.557Z,13.72
2023-04-24T01:09:28.972Z,13.70
2023-04-24T01:11:55.391Z,13.69
2023-04-24T01:14:23.830Z,13.65
2023-04-24T01:16:48.173Z,13.66
2023-04-24T01:19:14.659Z,13.68
2023-04-24T01:21:41.091Z,13.71
2023-04-24T01:24:07.515Z,13.73
2023-04-24T01:26:33.872Z,13.75
2023-04-24T01:29:00.245Z,13.75
2023-04-24T01:31:26.765Z,13.76
2023-04-24T01:33:53.166Z,13.74
2023-04-24T01:36:19.630Z,13.69
2023-04-24T01:38:46.088Z,13.69
2023-04-24T01:41:12.471Z,13.71
2023-04-24T01:43:38.886Z,13.68
2023-04-24T01:46:05.347Z,13.62
2023-04-24T01:48:31.799Z,13.57
2023-04-24T01:50:58.223Z,13.54
2023-04-24T01:53:25.003Z,13.54
2023-04-24T01:55:51.340Z,13.54
2023-04-24T01:58:17.824Z,13.53
2023-04-24T02:00:44.290Z,13.50
2023-04-24T02:03:10.839Z,13.47
2023-04-24T02:05:37.083Z,13.47
2023-04-24T02:08:03.512Z,13.43
2023-04-24T02:10:29.997Z,13.40
2023-04-24T02:12:58.810Z,13.35
2023-04-24T02:15:25.362Z,13.32
2023-04-24T02:17:51.788Z,13.31
2023-04-24T02:20:18.180Z,13.31
2023-04-24T02:22:44.683Z,13.28
2023-04-24T02:25:11.088Z,13.25
2023-04-24T02:27:37.622Z,13.24
2023-04-24T02:30:04.794Z,13.23
2023-04-24T02:32:31.263Z,13.21
2023-04-24T02:34:57.671Z,13.19
2023-04-24T02:37:24.077Z,13.17
2023-04-24T02:39:50.550Z,13.15
2023-04-24T02:42:17.021Z,13.11
2023-04-24T02:44:43.431Z,13.06
2023-04-24T02:47:09.855Z,13.08
2023-04-24T02:49:36.565Z,13.10
2023-04-24T02:52:02.901Z,13.13
2023-04-24T02:54:29.412Z,13.12
2023-04-24T02:56:55.931Z,13.10
2023-04-24T02:59:22.333Z,13.10
2023-04-24T03:01:48.852Z,13.02
2023-04-24T03:04:15.435Z,12.94
2023-04-24T03:06:41.658Z,12.90
2023-04-24T03:09:08.204Z,12.84
2023-04-24T03:11:34.543Z,12.85
2023-04-24T03:14:01.116Z,12.85
2023-04-24T03:16:27.639Z,12.85
2023-04-24T03:18:53.941Z,12.81
2023-04-24T03:21:20.471Z,12.77
2023-04-24T03:23:46.932Z,12.76
2023-04-24T03:26:13.362Z,12.75
2023-04-24T03:28:39.862Z,12.77
2023-04-24T03:31:06.339Z,12.76
2023-04-24T03:33:32.679Z,12.76
2023-04-24T03:35:59.163Z,12.76
2023-04-24T03:38:25.614Z,12.77
2023-04-24T03:40:52.081Z,12.74
2023-04-24T03:43:18.519Z,12.73
2023-04-24T03:45:45.005Z,12.71
2023-04-24T03:48:11.453Z,12.72
2023-04-24T03:50:38.017Z,12.70
2023-04-24T03:53:04.460Z,12.71
2023-04-24T03:55:30.977Z,12.71
2023-04-24T03:57:57.536Z,12.70
2023-04-24T04:00:23.991Z,12.70
2023-04-24T04:02:50.593Z,12.70
2023-04-24T04:05:16.990Z,12.70
2023-04-24T04:07:43.338Z,12.73
2023-04-24T04:10:09.765Z,12.75
2023-04-24T04:12:36.241Z,12.78
2023-04-24T04:15:02.740Z,12.79
2023-04-24T04:17:29.217Z,12.81
2023-04-24T04:19:55.647Z,12.84
2023-04-24T04:22:23.250Z,12.85
2023-04-24T04:24:49.677Z,12.87
2023-04-24T04:27:16.133Z,12.90
2023-04-24T04:29:42.912Z,12.90
2023-04-24T04:32:09.279Z,12.90
2023-04-24T04:34:35.598Z,12.90
2023-04-24T04:37:02.037Z,12.89
2023-04-24T04:39:28.563Z,12.99
2023-04-24T04:41:55.070Z,13.38
2023-04-24T04:44:21.530Z,13.62
2023-04-24T04:46:48.106Z,13.73
2023-04-24T04:49:14.531Z,13.84
2023-04-24T04:51:42.863Z,13.95
2023-04-24T04:54:07.508Z,14.03
2023-04-24T04:56:34.005Z,14.11
2023-04-24T04:59:00.569Z,14.23
2023-04-24T05:01:27.139Z,14.16
2023-04-24T05:03:53.997Z,13.91
2023-04-24T05:06:21.295Z,13.73
2023-04-24T05:08:46.864Z,13.62
2023-04-24T05:11:13.282Z,13.58
2023-04-24T05:13:41.156Z,13.57
2023-04-24T05:16:06.434Z,13.56
2023-04-24T05:18:32.911Z,13.54
2023-04-24T05:20:59.326Z,13.53
2023-04-24T05:23:25.839Z,13.54
2023-04-24T05:25:52.246Z,13.55
2023-04-24T05:28:18.681Z,13.62
2023-04-24T05:30:45.193Z,13.65
2023-04-24T05:33:11.645Z,13.60
2023-04-24T05:35:38.141Z,13.61
2023-04-24T05:38:04.538Z,13.66
2023-04-24T05:40:31.018Z,13.72
2023-04-24T05:42:59.500Z,13.81
2023-04-24T05:45:23.825Z,13.88
2023-04-24T05:47:50.368Z,13.99
2023-04-24T05:50:16.824Z,14.11
2023-04-24T05:52:43.941Z,14.27
2023-04-24T05:55:10.488Z,14.33
2023-04-24T05:57:36.960Z,14.24
2023-04-24T06:00:03.372Z,14.20
2023-04-24T06:02:30.062Z,14.23
2023-04-24T06:04:56.381Z,14.39
2023-04-24T06:07:22.713Z,14.55
2023-04-24T06:09:49.093Z,14.74
2023-04-24T06:12:15.707Z,14.91
2023-04-24T06:14:42.146Z,15.15
2023-04-24T06:17:08.597Z,15.32
2023-04-24T06:19:34.956Z,15.52
2023-04-24T06:22:01.459Z,15.72
2023-04-24T06:24:30.523Z,15.92
2023-04-24T06:26:54.332Z,16.15
2023-04-24T06:29:20.863Z,16.43
2023-04-24T06:31:47.343Z,16.63
2023-04-24T06:34:13.702Z,16.72
2023-04-24T06:36:40.160Z,16.68
2023-04-24T06:39:06.609Z,16.63
2023-04-24T06:41:32.990Z,16.60
2023-04-24T06:43:59.604Z,16.69
2023-04-24T06:46:26.107Z,16.81
2023-04-24T06:48:52.512Z,17.05
2023-04-24T06:51:18.869Z,17.32
2023-04-24T06:53:46.047Z,17.54
2023-04-24T06:56:11.700Z,17.53
2023-04-24T06:58:38.133Z,17.67
2023-04-24T07:01:04.567Z,17.76
2023-04-24T07:03:31.009Z,17.82
2023-04-24T07:05:57.467Z,17.83
2023-04-24T07:08:23.873Z,17.82
2023-04-24T07:10:50.266Z,17.85
2023-04-24T07:13:16.715Z,18.04
2023-04-24T07:15:43.345Z,18.24
2023-04-24T07:18:10.259Z,18.20
2023-04-24T07:20:36.635Z,18.21
2023-04-24T07:23:03.110Z,18.44
2023-04-24T07:25:29.678Z,18.59
2023-04-24T07:27:56.010Z,18.63
2023-04-24T07:30:22.409Z,18.58
2023-04-24T07:32:48.856Z,18.57
2023-04-24T07:35:15.493Z,18.87
2023-04-24T07:37:41.886Z,19.20
2023-04-24T07:40:08.306Z,19.49
2023-04-24T07:42:34.788Z,19.65
2023-04-24T07:45:02.244Z,19.78
2023-04-24T07:47:28.777Z,20.07
2023-04-24T07:49:55.118Z,20.34
2023-04-24T07:52:21.513Z,20.59
2023-04-24T07:54:47.943Z,20.81
2023-04-24T07:57:14.346Z,20.96
2023-04-24T07:59:40.949Z,21.17
2023-04-24T08:02:07.336Z,21.31
2023-04-24T08:04:33.808Z,21.52
2023-04-24T08:07:00.122Z,21.59
2023-04-24T08:09:27.621Z,21.67
2023-04-24T08:11:52.992Z,21.89
2023-04-24T08:14:19.382Z,22.07
2023-04-24T08:16:45.759Z,22.10
2023-04-24T08:19:12.195Z,22.21
2023-04-24T08:21:38.643Z,22.39
2023-04-24T08:24:05.106Z,22.51
2023-04-24T08:26:31.509Z,22.53
2023-04-24T08:28:58.080Z,22.62
2023-04-24T08:31:24.472Z,22.80
2023-04-24T08:33:50.804Z,22.97
2023-04-24T08:36:17.226Z,23.14
2023-04-24T08:38:43.672Z,23.35
2023-04-24T08:41:10.012Z,23.46
2023-04-24T08:43:36.438Z,23.38
2023-04-24T08:46:05.550Z,23.31
2023-04-24T08:48:31.590Z,23.45
2023-04-24T08:50:55.687Z,23.50
2023-04-24T08:53:22.174Z,23.54
2023-04-24T08:55:48.545Z,23.62
2023-04-24T08:58:14.922Z,23.70
2023-04-24T09:00:41.504Z,23.80
2023-04-24T09:03:08.448Z,24.11
2023-04-24T09:05:34.701Z,24.31
2023-04-24T09:08:01.164Z,24.38
2023-04-24T09:10:27.631Z,24.35
2023-04-24T09:12:56.406Z,24.33
2023-04-24T09:15:22.772Z,24.35
2023-04-24T09:17:49.261Z,24.46
2023-04-24T09:20:15.703Z,24.56
2023-04-24T09:22:42.097Z,24.69
2023-04-24T09:25:08.518Z,24.71
2023-04-24T09:27:34.895Z,24.71
2023-04-24T09:30:01.447Z,24.73
2023-04-24T09:32:27.861Z,24.74
2023-04-24T09:34:54.590Z,24.90
2023-04-24T09:37:20.987Z,24.95
2023-04-24T09:39:47.398Z,24.96
2023-04-24T09:42:13.777Z,25.03
2023-04-24T09:44:40.172Z,25.16
2023-04-24T09:47:06.598Z,25.26
2023-04-24T09:49:33.037Z,25.34
2023-04-24T09:51:59.498Z,25.38
2023-04-24T09:54:25.887Z,25.40
2023-04-24T09:56:52.266Z,25.31
2023-04-24T09:59:19.738Z,25.33
2023-04-24T10:01:46.224Z,25.48
2023-04-24T10:04:12.606Z,25.63
2023-04-24T10:06:39.023Z,25.79
2023-04-24T10:09:05.512Z,25.98
2023-04-24T10:11:31.989Z,26.17
2023-04-24T10:13:58.835Z,26.32
2023-04-24T10:16:25.424Z,26.31
2023-04-24T10:18:51.604Z,26.27
2023-04-24T10:21:18.002Z,26.31
2023-04-24T10:23:44.368Z,26.33
2023-04-24T10:26:10.773Z,26.13
2023-04-24T10:28:37.231Z,25.99
2023-04-24T10:31:03.770Z,25.89
2023-04-24T10:33:30.072Z,26.06
2023-04-24T10:35:56.508Z,26.20
2023-04-24T10:38:22.964Z,26.26
2023-04-24T10:40:49.338Z,26.53
2023-04-24T10:43:15.738Z,26.69
2023-04-24T10:45:42.248Z,26.85
2023-04-24T10:48:08.697Z,26.99
2023-04-24T10:50:37.151Z,27.02
2023-04-24T10:53:03.607Z,26.93
2023-04-24T10:55:29.980Z,26.78
2023-04-24T10:57:56.369Z,26.57
2023-04-24T11:00:22.806Z,26.28
2023-04-24T11:02:51.729Z,26.13
2023-04-24T11:05:17.734Z,26.03
2023-04-24T11:07:44.227Z,25.98
2023-04-24T11:10:10.647Z,25.78
2023-04-24T11:12:37.072Z,25.66
2023-04-24T11:15:03.797Z,25.56
2023-04-24T11:17:29.919Z,25.40
2023-04-24T11:19:56.353Z,25.27
2023-04-24T11:22:22.668Z,25.14
2023-04-24T11:24:49.088Z,24.97
2023-04-24T11:27:15.575Z,24.82
2023-04-24T11:29:41.951Z,24.73
2023-04-24T11:32:08.414Z,24.55
2023-04-24T11:34:34.805Z,24.27
2023-04-24T11:37:01.225Z,23.96
2023-04-24T11:39:27.641Z,23.74
2023-04-24T11:41:54.065Z,23.68
2023-04-24T11:44:20.469Z,23.77
2023-04-24T11:46:46.879Z,23.80
2023-04-24T11:49:13.268Z,23.84
2023-04-24T11:51:52.296Z,23.92
2023-04-24T11:54:06.169Z,23.96
2023-04-24T11:56:32.566Z,24.02
2023-04-24T11:58:58.958Z,23.98
2023-04-24T12:01:25.378Z,23.96
2023-04-24T12:03:52.144Z,23.87
2023-04-24T12:06:18.376Z,23.75
2023-04-24T12:08:44.617Z,23.74
2023-04-24T12:11:11.079Z,23.75
2023-04-24T12:13:37.503Z,23.75
2023-04-24T12:16:03.861Z,23.77
2023-04-24T12:18:30.294Z,23.78
2023-04-24T12:21:01.339Z,23.76
2023-04-24T12:23:23.078Z,23.71
2023-04-24T12:25:49.512Z,23.68
2023-04-24T12:28:16.030Z,23.62
2023-04-24T12:30:42.440Z,23.54
2023-04-24T12:33:08.883Z,23.46
2023-04-24T12:35:36.427Z,23.41
2023-04-24T12:38:02.838Z,23.34
2023-04-24T12:40:29.245Z,23.31
2023-04-24T12:42:56.834Z,23.30
2023-04-24T12:45:22.135Z,23.29
2023-04-24T12:47:48.528Z,23.33
2023-04-24T12:50:14.918Z,23.28
2023-04-24T12:52:41.344Z,23.25
2023-04-24T12:55:07.706Z,23.20
2023-04-24T12:57:34.080Z,23.16
2023-04-24T13:00:00.461Z,23.11
2023-04-24T13:02:26.987Z,23.04
2023-04-24T13:04:53.315Z,22.97
2023-04-24T13:07:19.745Z,22.92
2023-04-24T13:09:46.153Z,22.93
2023-04-24T13:12:12.595Z,22.98
2023-04-24T13:14:38.970Z,22.99
2023-04-24T13:17:05.391Z,22.92
2023-04-24T13:19:31.877Z,22.94
2023-04-24T13:21:58.231Z,22.94
2023-04-24T13:24:26.815Z,22.94
2023-04-24T13:26:53.246Z,22.92
2023-04-24T13:29:19.746Z,22.95
2023-04-24T13:31:46.270Z,22.91
2023-04-24T13:34:12.589Z,22.98
2023-04-24T13:36:39.053Z,23.03
2023-04-24T13:39:05.471Z,23.06
2023-04-24T13:41:31.874Z,23.09
2023-04-24T13:43:58.314Z,23.07
2023-04-24T13:46:24.793Z,23.07
2023-04-24T13:48:51.118Z,23.04
2023-04-24T13:51:17.548Z,23.05
2023-04-24T13:53:44.203Z,23.04
2023-04-24T13:56:10.410Z,23.05
2023-04-24T13:58:36.783Z,23.02
2023-04-24T14:01:03.274Z,22.98
2023-04-24T14:03:29.833Z,22.93
2023-04-24T14:05:56.292Z,22.89
2023-04-24T14:08:22.659Z,22.90
2023-04-24T14:10:49.040Z,22.86
2023-04-24T14:13:15.661Z,22.77
2023-04-24T14:15:42.161Z,22.74
2023-04-24T14:18:08.560Z,22.74
2023-04-24T14:20:35.033Z,22.71
2023-04-24T14:23:01.492Z,22.67
2023-04-24T14:25:27.872Z,22.64
2023-04-24T14:27:54.361Z,22.59
2023-04-24T14:30:20.786Z,22.57
2023-04-24T14:32:47.242Z,22.48
2023-04-24T14:35:13.576Z,22.35
2023-04-24T14:37:39.962Z,22.28
2023-04-24T14:40:21.230Z,22.20
2023-04-24T14:42:32.784Z,22.08
2023-04-24T14:44:59.223Z,21.96
2023-04-24T14:47:25.628Z,21.91
2023-04-24T14:49:52.114Z,21.89
2023-04-24T14:52:18.477Z,21.75
2023-04-24T14:54:47.150Z,21.68
2023-04-24T14:57:15.896Z,21.62
2023-04-24T14:59:39.969Z,21.59
2023-04-24T15:02:15.958Z,21.52
2023-04-24T15:04:33.013Z,21.46
2023-04-24T15:06:59.268Z,21.34
2023-04-24T15:09:25.700Z,21.28
2023-04-24T15:11:52.127Z,21.26
2023-04-24T15:14:18.537Z,21.15
2023-04-24T15:16:45.000Z,21.00
2023-04-24T15:19:11.468Z,20.87
2023-04-24T15:21:37.883Z,20.80
2023-04-24T15:24:04.295Z,20.85
2023-04-24T15:26:30.883Z,20.84
2023-04-24T15:28:57.305Z,20.71
2023-04-24T15:31:23.758Z,20.61
2023-04-24T15:33:50.315Z,20.62
2023-04-24T15:36:16.634Z,20.59
2023-04-24T15:38:42.998Z,20.54
2023-04-24T15:41:09.486Z,20.52
2023-04-24T15:43:35.932Z,20.47
2023-04-24T15:46:02.381Z,20.35
2023-04-24T15:48:28.738Z,20.30
2023-04-24T15:50:55.155Z,20.30
2023-04-24T15:53:21.716Z,20.25
2023-04-24T15:55:48.098Z,20.12
2023-04-24T15:58:14.588Z,20.05
2023-04-24T16:00:40.975Z,20.05
2023-04-24T16:03:09.952Z,20.00
2023-04-24T16:05:33.895Z,19.92
2023-04-24T16:08:00.496Z,19.87
2023-04-24T16:10:27.195Z,19.81
2023-04-24T16:12:53.553Z,19.79
2023-04-24T16:15:19.982Z,19.83
2023-04-24T16:17:46.496Z,19.88
2023-04-24T16:20:12.831Z,19.88
2023-04-24T16:22:39.413Z,19.87
2023-04-24T16:25:06.276Z,19.84
2023-04-24T16:27:32.632Z,19.80
2023-04-24T16:29:59.129Z,19.76
2023-04-24T16:32:25.649Z,19.73
2023-04-24T16:34:52.152Z,19.66
2023-04-24T16:37:18.564Z,19.63
2023-04-24T16:39:44.945Z,19.58
2023-04-24T16:42:11.638Z,19.54
2023-04-24T16:44:38.072Z,19.47
2023-04-24T16:47:04.557Z,19.39
2023-04-24T16:49:31.167Z,19.33
2023-04-24T16:51:57.765Z,19.30
2023-04-24T16:54:24.205Z,19.26
2023-04-24T16:56:53.282Z,19.24
2023-04-24T16:59:17.286Z,19.29
2023-04-24T17:01:43.482Z,19.27
2023-04-24T17:04:10.927Z,19.19
2023-04-24T17:06:37.234Z,19.10
2023-04-24T17:09:03.868Z,19.00
2023-04-24T17:11:31.191Z,18.91
2023-04-24T17:13:56.815Z,18.83
2023-04-24T17:16:25.427Z,18.74
2023-04-24T17:18:51.918Z,18.68
2023-04-24T17:21:18.416Z,18.63
2023-04-24T17:23:45.392Z,18.56
2023-04-24T17:26:11.819Z,18.52
2023-04-24T17:28:38.332Z,18.49
2023-04-24T17:31:04.660Z,18.54
2023-04-24T17:33:31.088Z,18.57
2023-04-24T17:35:57.588Z,18.58
2023-04-24T17:38:23.960Z,18.58
2023-04-24T17:40:50.479Z,18.55
2023-04-24T17:43:16.937Z,18.54
2023-04-24T17:45:44.619Z,18.56
2023-04-24T17:48:11.110Z,18.55
2023-04-24T17:50:37.574Z,18.54
2023-04-24T17:53:03.927Z,18.54
2023-04-24T17:55:30.629Z,18.54
2023-04-24T17:57:57.160Z,18.50
2023-04-24T18:00:23.784Z,18.43
2023-04-24T18:02:50.474Z,18.35
2023-04-24T18:05:17.179Z,18.33
2023-04-24T18:07:43.596Z,18.28
2023-04-24T18:10:10.323Z,18.20
2023-04-24T18:12:36.687Z,18.14
2023-04-24T18:15:13.711Z,18.08
2023-04-24T18:17:29.536Z,18.07
2023-04-24T18:19:55.998Z,18.24
2023-04-24T18:22:22.645Z,18.23
2023-04-24T18:24:49.164Z,18.09
2023-04-24T18:27:15.590Z,17.95
2023-04-24T18:29:42.237Z,17.97
2023-04-24T18:32:08.649Z,18.10
2023-04-24T18:34:35.050Z,18.18
2023-04-24T18:37:01.503Z,18.16
2023-04-24T18:39:27.922Z,18.11
2023-04-24T18:41:54.297Z,18.05
2023-04-24T18:44:20.788Z,17.99
2023-04-24T18:46:47.289Z,17.93
2023-04-24T18:49:13.781Z,17.86
2023-04-24T18:51:52.577Z,17.79
2023-04-24T18:54:06.688Z,17.73
2023-04-24T18:56:33.300Z,17.65
2023-04-24T18:58:59.723Z,17.63
2023-04-24T19:01:26.251Z,17.58
2023-04-24T19:03:52.768Z,17.53
2023-04-24T19:06:20.131Z,17.48
2023-04-24T19:08:46.932Z,17.45
2023-04-24T19:11:13.043Z,17.42
2023-04-24T19:13:39.498Z,17.38
2023-04-24T19:16:06.082Z,17.35
2023-04-24T19:18:32.411Z,17.42
2023-04-24T19:20:58.809Z,17.43
2023-04-24T19:23:25.264Z,17.40
2023-04-24T19:25:51.765Z,17.35
2023-04-24T19:28:18.096Z,17.32
2023-04-24T19:30:44.615Z,17.29
2023-04-24T19:33:11.049Z,17.26
2023-04-24T19:35:37.502Z,17.25
2023-04-24T19:38:03.937Z,17.23
2023-04-24T19:40:30.526Z,17.21
2023-04-24T19:42:56.984Z,17.19
2023-04-24T19:45:23.449Z,17.16
2023-04-24T19:47:49.856Z,17.15
2023-04-24T19:50:16.716Z,17.14
2023-04-24T19:52:43.515Z,17.11
2023-04-24T19:55:09.919Z,17.08
2023-04-24T19:57:36.404Z,17.04
2023-04-24T20:00:02.817Z,17.01
2023-04-24T20:02:29.473Z,16.98
2023-04-24T20:04:55.930Z,16.94
2023-04-24T20:07:22.170Z,16.91
2023-04-24T20:09:48.641Z,16.87
2023-04-24T20:12:15.013Z,16.85
2023-04-24T20:14:41.404Z,16.82
2023-04-24T20:17:07.941Z,16.80
2023-04-24T20:19:34.388Z,16.79
2023-04-24T20:22:00.710Z,16.77
2023-04-24T20:24:27.114Z,16.76
2023-04-24T20:26:53.531Z,16.73
2023-04-24T20:29:20.125Z,16.71
2023-04-24T20:31:46.630Z,16.69
2023-04-24T20:34:12.958Z,16.65
2023-04-24T20:36:39.315Z,16.63
2023-04-24T20:39:05.975Z,16.60
2023-04-24T20:41:32.399Z,16.57
2023-04-24T20:43:58.884Z,16.52
2023-04-24T20:46:25.423Z,16.47
2023-04-24T20:48:51.806Z,16.43
2023-04-24T20:51:18.117Z,16.39
2023-04-24T20:53:44.511Z,16.35
2023-04-24T20:56:10.919Z,16.34
2023-04-24T20:58:37.321Z,16.30
2023-04-24T21:01:03.783Z,16.29
2023-04-24T21:03:30.413Z,16.27
2023-04-24T21:05:56.795Z,16.25
2023-04-24T21:08:23.213Z,16.24
2023-04-24T21:10:49.641Z,16.24
2023-04-24T21:13:16.076Z,16.23
2023-04-24T21:15:42.520Z,16.21
2023-04-24T21:18:09.039Z,16.21
2023-04-24T21:20:35.414Z,16.20
2023-04-24T21:23:01.785Z,16.22
2023-04-24T21:25:28.255Z,16.20
2023-04-24T21:27:54.599Z,16.17
2023-04-24T21:30:20.988Z,16.18
2023-04-24T21:32:47.428Z,16.17
2023-04-24T21:35:13.830Z,16.16
2023-04-24T21:37:40.279Z,16.15
2023-04-24T21:40:06.669Z,16.14
2023-04-24T21:42:33.081Z,16.12
2023-04-24T21:44:59.484Z,16.10
2023-04-24T21:47:26.167Z,16.08
2023-04-24T21:49:52.625Z,16.06
2023-04-24T21:52:19.097Z,16.03
2023-04-24T21:54:45.459Z,16.01
2023-04-24T21:57:11.825Z,15.99
2023-04-24T21:59:38.244Z,15.98
2023-04-24T22:02:04.664Z,15.95
2023-04-24T22:04:31.123Z,15.93
2023-04-24T22:06:57.446Z,15.91
2023-04-24T22:09:23.969Z,15.89
2023-04-24T22:11:50.379Z,15.87
2023-04-24T22:14:16.814Z,15.86
2023-04-24T22:16:43.331Z,15.84
2023-04-24T22:19:09.665Z,15.83
2023-04-24T22:21:36.098Z,15.83
2023-04-24T22:24:02.536Z,15.81
2023-04-24T22:26:29.244Z,15.80
2023-04-24T22:28:55.668Z,15.80
2023-04-24T22:31:22.031Z,15.78
2023-04-24T22:33:48.681Z,15.78
2023-04-24T22:36:15.282Z,15.78
2023-04-24T22:38:41.646Z,15.78
2023-04-24T22:41:08.108Z,15.78
2023-04-24T22:43:34.546Z,15.78
2023-04-24T22:46:00.889Z,15.78
2023-04-24T22:48:27.349Z,15.78
2023-04-24T22:50:53.820Z,15.77
2023-04-24T22:53:20.180Z,15.77
2023-04-24T22:55:46.578Z,15.77
2023-04-24T22:58:13.036Z,15.77
2023-04-24T23:00:39.501Z,15.77
2023-04-24T23:03:05.961Z,15.77
2023-04-24T23:05:32.294Z,15.78
2023-04-24T23:07:58.783Z,15.78
2023-04-24T23:10:25.173Z,15.78
2023-04-24T23:12:51.743Z,15.78
2023-04-24T23:15:18.212Z,15.82
2023-04-24T23:17:44.718Z,15.87
2023-04-24T23:20:12.104Z,15.86
2023-04-24T23:22:38.617Z,15.84
2023-04-24T23:25:05.067Z,15.81
2023-04-24T23:27:31.460Z,15.78
2023-04-24T23:29:57.965Z,15.77
2023-04-24T23:32:24.434Z,15.76
2023-04-24T23:34:50.890Z,15.73
2023-04-24T23:37:18.923Z,15.71
2023-04-24T23:39:43.723Z,15.69
2023-04-24T23:42:10.106Z,15.67
2023-04-24T23:44:36.575Z,15.65
2023-04-24T23:47:02.989Z,15.63
2023-04-24T23:49:29.428Z,15.63
2023-04-24T23:51:55.879Z,15.62
2023-04-24T23:54:22.335Z,15.59
2023-04-24T23:56:48.715Z,15.52
2023-04-24T23:59:15.175Z,15.45
